Terminal Aerodrome Forecast
Issued by NWS

Home | Current Version | Previous Version | Text Only | Print | Product List | Glossary On
Versions: 1 2 3 4 5 6 7 8 9 10 11 12 13 14 15
000
FTUS44 KCRP 250537
TAFLRD
TAF
KLRD 250537Z 2506/2606 15011KT P6SM SKC
     FM251000 14010KT P6SM BKN015
     FM251600 16014KT P6SM VCTS SCT025CB BKN050 PROB30 2516/2520
      VRB20G35KT 1SM +TSRA BR BKN015CB OVC040
     FM252100 VRB05KT P6SM SCT100
     FM260200 14011KT P6SM FEW100=

USA.gov is the U.S. government's official web portal to all federal, state and local government web resources and services.